createdAt,value
2023-02-06T00:00:54.601Z,26.63
2023-02-06T00:03:22.717Z,23.30
2023-02-06T00:05:59.250Z,29.63
2023-02-06T00:08:27.924Z,25.27
2023-02-06T00:10:56.035Z,25.87
2023-02-06T00:13:24.201Z,29.53
2023-02-06T00:15:52.548Z,26.53
2023-02-06T00:18:20.700Z,32.70
2023-02-06T00:20:49.574Z,28.20
2023-02-06T00:23:19.343Z,26.53
2023-02-06T00:25:47.552Z,20.63
2023-02-06T00:28:15.896Z,25.07
2023-02-06T00:30:47.341Z,27.80
2023-02-06T00:33:15.574Z,19.07
2023-02-06T00:35:43.567Z,23.97
2023-02-06T00:38:12.320Z,24.30
2023-02-06T00:40:41.798Z,24.60
2023-02-06T00:43:09.841Z,26.87
2023-02-06T00:45:38.044Z,15.20
2023-02-06T00:48:06.361Z,28.30
2023-02-06T00:50:34.669Z,30.60
2023-02-06T00:53:02.804Z,26.00
2023-02-06T00:55:30.908Z,21.43
2023-02-06T00:58:00.447Z,25.07
2023-02-06T01:00:28.574Z,28.30
2023-02-06T01:02:56.837Z,29.67
2023-02-06T01:05:25.145Z,28.83
2023-02-06T01:07:53.367Z,29.07
2023-02-06T01:10:21.781Z,22.13
2023-02-06T01:12:49.837Z,25.77
2023-02-06T01:15:19.325Z,24.43
2023-02-06T01:17:47.465Z,21.77
2023-02-06T01:20:15.901Z,23.30
2023-02-06T01:22:44.335Z,22.83
2023-02-06T01:25:12.426Z,23.93
2023-02-06T01:27:41.013Z,28.10
2023-02-06T01:30:10.375Z,20.97
2023-02-06T01:32:41.612Z,22.37
2023-02-06T01:35:11.193Z,36.10
2023-02-06T01:37:39.818Z,19.77
2023-02-06T01:40:10.763Z,25.30
2023-02-06T01:42:39.423Z,20.37
2023-02-06T01:45:36.134Z,18.67
2023-02-06T01:48:10.192Z,22.53
2023-02-06T01:50:40.260Z,23.03
2023-02-06T01:53:08.824Z,18.97
2023-02-06T01:55:38.750Z,20.67
2023-02-06T01:58:07.203Z,27.60
2023-02-06T02:00:35.432Z,21.00
2023-02-06T02:03:05.053Z,29.73
2023-02-06T02:05:34.516Z,25.20
2023-02-06T02:08:05.911Z,25.07
2023-02-06T02:10:34.325Z,19.77
2023-02-06T02:13:02.732Z,28.37
2023-02-06T02:15:40.589Z,21.83
2023-02-06T02:18:23.355Z,26.60
2023-02-06T02:21:20.624Z,39.27
2023-02-06T02:23:53.747Z,30.33
2023-02-06T02:26:50.924Z,24.73
2023-02-06T02:29:51.382Z,35.67
2023-02-06T02:32:38.162Z,19.37
2023-02-06T02:35:12.106Z,30.70
2023-02-06T02:37:47.982Z,25.70
2023-02-06T02:40:20.634Z,24.43
2023-02-06T02:42:50.950Z,25.83
2023-02-06T02:45:22.505Z,25.03
2023-02-06T02:47:55.700Z,25.80
2023-02-06T02:50:25.939Z,22.43
2023-02-06T02:52:54.308Z,21.97
2023-02-06T02:55:23.938Z,25.43
2023-02-06T02:57:55.272Z,28.17
2023-02-06T03:00:24.338Z,28.23
2023-02-06T03:02:53.040Z,26.73
2023-02-06T03:05:25.479Z,16.63
2023-02-06T03:08:02.737Z,25.03
2023-02-06T03:10:35.122Z,22.83
2023-02-06T03:13:07.177Z,26.17
2023-02-06T03:15:38.232Z,22.23
2023-02-06T03:18:10.530Z,22.57
2023-02-06T03:20:42.357Z,14.47
2023-02-06T03:23:12.550Z,14.93
2023-02-06T03:25:43.181Z,15.60
2023-02-06T03:28:15.328Z,19.63
2023-02-06T03:30:45.353Z,15.10
2023-02-06T03:33:15.148Z,21.07
2023-02-06T03:35:45.100Z,22.33
2023-02-06T03:38:13.502Z,17.97
2023-02-06T03:40:44.241Z,28.20
2023-02-06T03:43:18.583Z,22.67
2023-02-06T03:45:50.268Z,22.93
2023-02-06T03:48:21.015Z,21.00
2023-02-06T03:50:54.366Z,19.30
2023-02-06T03:53:24.359Z,24.83
2023-02-06T03:55:55.684Z,22.73
2023-02-06T03:58:24.704Z,27.30
2023-02-06T04:00:53.831Z,23.57
2023-02-06T04:03:22.930Z,19.43
2023-02-06T04:05:52.391Z,18.93
2023-02-06T04:08:20.501Z,18.07
2023-02-06T04:10:48.700Z,23.77
2023-02-06T04:13:16.736Z,25.63
2023-02-06T04:15:44.882Z,20.17
2023-02-06T04:18:12.993Z,18.60
2023-02-06T04:20:41.165Z,22.97
2023-02-06T04:23:10.878Z,19.40
2023-02-06T04:25:39.122Z,22.43
2023-02-06T04:28:07.240Z,26.63
2023-02-06T04:30:35.532Z,28.80
2023-02-06T04:33:03.538Z,24.20
2023-02-06T04:35:31.885Z,19.43
2023-02-06T04:38:00.123Z,18.77
2023-02-06T04:40:29.628Z,16.03
2023-02-06T04:42:57.774Z,30.20
2023-02-06T04:45:25.794Z,29.10
2023-02-06T04:47:53.886Z,29.60
2023-02-06T04:50:22.316Z,24.70
2023-02-06T04:52:50.443Z,34.40
2023-02-06T04:55:18.698Z,26.97
2023-02-06T04:57:48.207Z,26.90
2023-02-06T05:00:17.225Z,25.13
2023-02-06T05:02:45.523Z,24.03
2023-02-06T05:05:13.733Z,29.17
2023-02-06T05:07:42.041Z,28.03
2023-02-06T05:10:10.660Z,20.30
2023-02-06T05:12:39.147Z,23.90
2023-02-06T05:15:09.645Z,18.17
2023-02-06T05:17:38.012Z,25.83
2023-02-06T05:20:07.117Z,24.17
2023-02-06T05:22:35.399Z,32.80
2023-02-06T05:25:03.626Z,29.80
2023-02-06T05:27:31.678Z,30.63
2023-02-06T05:29:59.791Z,39.83
2023-02-06T05:32:29.345Z,37.70
2023-02-06T05:34:57.746Z,26.43
2023-02-06T05:37:25.904Z,23.53
2023-02-06T05:39:54.031Z,25.23
2023-02-06T05:42:22.009Z,32.60
2023-02-06T05:44:50.261Z,28.37
2023-02-06T05:47:18.627Z,23.07
2023-02-06T05:49:48.337Z,26.03
2023-02-06T05:52:16.416Z,30.13
2023-02-06T05:54:44.757Z,23.90
2023-02-06T05:57:13.021Z,28.87
2023-02-06T05:59:41.490Z,37.90
2023-02-06T06:02:09.862Z,26.57
2023-02-06T06:04:38.283Z,18.20
2023-02-06T06:07:07.752Z,26.63
2023-02-06T06:09:35.927Z,27.53
2023-02-06T06:12:03.988Z,21.43
2023-02-06T06:14:32.101Z,20.47
2023-02-06T06:17:00.269Z,24.07
2023-02-06T06:19:28.492Z,20.10
2023-02-06T06:21:58.258Z,25.57
2023-02-06T06:24:28.232Z,29.77
2023-02-06T06:26:56.551Z,22.77
2023-02-06T06:29:24.829Z,35.10
2023-02-06T06:31:53.148Z,36.00
2023-02-06T06:34:21.189Z,25.07
2023-02-06T06:36:49.466Z,36.67
2023-02-06T06:39:17.807Z,25.97
2023-02-06T06:41:47.340Z,36.27
2023-02-06T06:44:15.546Z,29.93
2023-02-06T06:46:43.656Z,30.13
2023-02-06T06:49:11.861Z,32.20
2023-02-06T06:51:40.152Z,37.50
2023-02-06T06:54:08.378Z,30.97
2023-02-06T06:56:36.647Z,40.67
2023-02-06T06:59:06.049Z,33.77
2023-02-06T07:01:34.162Z,25.23
2023-02-06T07:04:02.344Z,27.87
2023-02-06T07:06:30.508Z,34.63
2023-02-06T07:08:58.597Z,31.13
2023-02-06T07:11:26.904Z,32.43
2023-02-06T07:13:55.015Z,36.13
2023-02-06T07:16:24.743Z,26.80
2023-02-06T07:18:53.093Z,33.27
2023-02-06T07:21:21.233Z,35.73
2023-02-06T07:23:49.486Z,35.90
2023-02-06T07:26:17.592Z,47.17
2023-02-06T07:28:45.962Z,67.53
2023-02-06T07:31:14.085Z,65.70
2023-02-06T07:33:43.743Z,62.33
2023-02-06T07:36:12.522Z,85.13
2023-02-06T07:38:40.708Z,103.77
2023-02-06T07:41:09.276Z,70.40
2023-02-06T07:43:38.274Z,79.23
2023-02-06T07:46:07.017Z,69.17
2023-02-06T07:48:34.964Z,52.50
2023-02-06T07:51:08.757Z,61.27
2023-02-06T07:53:37.609Z,70.10
2023-02-06T07:56:12.033Z,103.00
2023-02-06T07:58:40.119Z,87.33
2023-02-06T08:01:08.930Z,72.57
2023-02-06T08:03:37.672Z,66.93
2023-02-06T08:06:11.585Z,53.20
2023-02-06T08:08:39.769Z,46.50
2023-02-06T08:11:08.330Z,63.40
2023-02-06T08:13:36.683Z,56.63
2023-02-06T08:16:06.578Z,37.47
2023-02-06T08:18:34.882Z,34.97
2023-02-06T08:21:03.493Z,83.10
2023-02-06T08:23:33.176Z,63.80
2023-02-06T08:26:05.021Z,70.28
2023-02-06T08:28:35.207Z,41.42
2023-02-06T08:31:06.589Z,53.90
2023-02-06T08:33:35.649Z,68.80
2023-02-06T08:36:03.939Z,50.22
2023-02-06T08:38:33.657Z,35.35
2023-02-06T08:41:02.181Z,43.75
2023-02-06T08:43:32.242Z,39.85
2023-02-06T08:46:01.227Z,43.15
2023-02-06T08:48:29.330Z,31.83
2023-02-06T08:51:04.211Z,20.85
2023-02-06T08:53:33.837Z,40.28
2023-02-06T08:56:02.651Z,36.25
2023-02-06T08:58:31.034Z,43.33
2023-02-06T09:01:00.001Z,38.30
2023-02-06T09:03:28.579Z,33.53
2023-02-06T09:06:09.530Z,36.63
2023-02-06T09:08:40.707Z,42.20
2023-02-06T09:11:09.809Z,42.97
2023-02-06T09:13:38.246Z,44.42
2023-02-06T09:16:07.964Z,36.70
2023-02-06T09:18:36.103Z,32.38
2023-02-06T09:21:06.285Z,22.40
2023-02-06T09:23:35.161Z,20.80
2023-02-06T09:26:05.208Z,24.80
2023-02-06T09:28:33.771Z,25.55
2023-02-06T09:31:02.162Z,38.00
2023-02-06T09:33:30.427Z,27.50
2023-02-06T09:36:05.849Z,32.97
2023-02-06T09:38:34.103Z,56.08
2023-02-06T09:41:05.497Z,43.20
2023-02-06T09:43:34.486Z,46.95
2023-02-06T09:46:04.628Z,41.72
2023-02-06T09:48:35.725Z,51.50
2023-02-06T09:51:08.896Z,41.22
2023-02-06T09:53:43.957Z,33.85
2023-02-06T09:56:19.085Z,36.45
2023-02-06T09:58:50.886Z,35.28
2023-02-06T10:01:23.490Z,26.63
2023-02-06T10:04:10.193Z,20.25
2023-02-06T10:06:42.565Z,16.33
2023-02-06T10:09:15.300Z,17.48
2023-02-06T10:11:50.556Z,17.65
2023-02-06T10:14:22.850Z,19.48
2023-02-06T10:16:54.716Z,19.38
2023-02-06T10:19:30.561Z,17.63
2023-02-06T10:22:04.632Z,20.10
2023-02-06T10:24:38.077Z,17.15
2023-02-06T10:27:12.012Z,22.27
2023-02-06T10:29:41.799Z,17.05
2023-02-06T10:32:31.187Z,22.35
2023-02-06T10:35:13.640Z,20.70
2023-02-06T10:37:57.335Z,22.75
2023-02-06T10:40:33.917Z,25.50
2023-02-06T10:43:11.751Z,19.70
2023-02-06T10:45:43.746Z,16.65
2023-02-06T10:48:21.564Z,21.55
2023-02-06T10:50:52.440Z,14.60
2023-02-06T10:53:22.709Z,17.63
2023-02-06T10:55:55.507Z,24.20
2023-02-06T10:58:27.484Z,19.48
2023-02-06T11:00:56.414Z,20.67
2023-02-06T11:03:27.116Z,16.05
2023-02-06T11:05:55.495Z,26.98
2023-02-06T11:08:26.776Z,22.85
2023-02-06T11:10:55.706Z,18.48
2023-02-06T11:13:28.616Z,23.92
2023-02-06T11:16:03.090Z,14.18
2023-02-06T11:18:33.633Z,23.50
2023-02-06T11:21:01.901Z,19.92
2023-02-06T11:23:31.214Z,27.70
2023-02-06T11:26:07.445Z,27.45
2023-02-06T11:28:39.679Z,19.88
2023-02-06T11:31:09.550Z,19.73
2023-02-06T11:33:40.945Z,16.67
2023-02-06T11:36:23.169Z,19.42
2023-02-06T11:39:00.178Z,28.42
2023-02-06T11:41:28.463Z,25.58
2023-02-06T11:44:02.683Z,20.10
2023-02-06T11:46:32.445Z,23.05
2023-02-06T11:49:06.831Z,24.25
2023-02-06T11:51:49.962Z,23.73
2023-02-06T11:54:28.528Z,20.48
2023-02-06T11:57:03.274Z,20.13
2023-02-06T11:59:34.982Z,22.65
2023-02-06T12:02:05.752Z,24.98
2023-02-06T12:04:38.008Z,17.92
2023-02-06T12:07:13.071Z,19.38
2023-02-06T12:09:41.302Z,23.08
2023-02-06T12:12:17.802Z,18.05
2023-02-06T12:14:50.514Z,20.75
2023-02-06T12:17:25.604Z,20.27
2023-02-06T12:20:01.196Z,23.20
2023-02-06T12:22:29.502Z,25.38
2023-02-06T12:25:00.154Z,16.17
2023-02-06T12:27:34.024Z,23.73
2023-02-06T12:30:09.116Z,19.80
2023-02-06T12:32:41.956Z,21.17
2023-02-06T12:35:16.013Z,18.58
2023-02-06T12:37:50.088Z,18.65
2023-02-06T12:40:26.280Z,20.05
2023-02-06T12:42:59.418Z,18.98
2023-02-06T12:45:36.768Z,21.23
2023-02-06T12:48:12.137Z,17.67
2023-02-06T12:50:44.068Z,18.70
2023-02-06T12:53:17.798Z,18.73
2023-02-06T12:55:51.288Z,18.80
2023-02-06T12:58:25.828Z,14.98
2023-02-06T13:01:14.569Z,27.77
2023-02-06T13:03:51.563Z,16.75
2023-02-06T13:06:21.374Z,19.52
2023-02-06T13:08:53.215Z,16.80
2023-02-06T13:11:27.663Z,15.18
2023-02-06T13:14:05.080Z,26.40
2023-02-06T13:16:56.494Z,16.85
2023-02-06T13:19:30.991Z,16.52
2023-02-06T13:22:32.721Z,16.75
2023-02-06T13:25:03.013Z,18.80
2023-02-06T13:27:38.947Z,16.40
2023-02-06T13:30:46.709Z,16.52
2023-02-06T13:33:17.931Z,15.73
2023-02-06T13:35:57.461Z,20.35
2023-02-06T13:38:38.736Z,17.30
2023-02-06T13:41:30.732Z,20.88
2023-02-06T13:44:00.998Z,21.52
2023-02-06T13:46:40.938Z,17.90
2023-02-06T13:49:33.679Z,16.90
2023-02-06T13:52:05.942Z,21.98
2023-02-06T13:54:55.456Z,17.35
2023-02-06T13:57:31.278Z,16.38
2023-02-06T14:00:02.585Z,19.45
2023-02-06T14:02:36.320Z,29.42
2023-02-06T14:05:10.058Z,18.13
2023-02-06T14:07:58.937Z,20.23
2023-02-06T14:10:42.938Z,20.80
2023-02-06T14:13:21.569Z,17.85
2023-02-06T14:15:54.356Z,20.85
2023-02-06T14:18:33.005Z,19.38
2023-02-06T14:21:10.681Z,21.30
2023-02-06T14:23:51.408Z,19.33
2023-02-06T14:26:29.259Z,23.83
2023-02-06T14:29:04.273Z,18.85
2023-02-06T14:31:45.718Z,17.65
2023-02-06T14:34:28.354Z,18.35
2023-02-06T14:37:10.145Z,18.63
2023-02-06T14:39:45.959Z,18.85
2023-02-06T14:42:17.941Z,21.20
2023-02-06T14:44:50.554Z,17.85
2023-02-06T14:47:21.053Z,14.60
2023-02-06T14:49:49.377Z,17.08
2023-02-06T14:52:21.383Z,22.40
2023-02-06T14:54:49.563Z,27.50
2023-02-06T14:57:22.731Z,18.73
2023-02-06T14:59:55.932Z,15.75
2023-02-06T15:02:27.349Z,24.55
2023-02-06T15:04:55.679Z,13.07
2023-02-06T15:07:29.214Z,21.45
2023-02-06T15:10:06.275Z,22.27
2023-02-06T15:12:35.561Z,19.77
2023-02-06T15:15:16.056Z,20.05
2023-02-06T15:17:44.197Z,21.55
2023-02-06T15:20:46.391Z,24.70
2023-02-06T15:23:25.243Z,18.17
2023-02-06T15:26:03.212Z,21.10
2023-02-06T15:28:34.110Z,19.60
2023-02-06T15:31:03.265Z,19.77
2023-02-06T15:33:33.166Z,26.35
2023-02-06T15:36:03.688Z,28.55
2023-02-06T15:38:34.573Z,18.65
2023-02-06T15:41:04.761Z,17.92
2023-02-06T15:43:33.348Z,21.55
2023-02-06T15:46:02.992Z,14.38
2023-02-06T15:48:34.937Z,20.77
2023-02-06T15:51:05.274Z,17.65
2023-02-06T15:53:38.756Z,20.20
2023-02-06T15:56:09.226Z,12.25
2023-02-06T15:58:37.870Z,13.23
2023-02-06T16:01:07.295Z,18.83
2023-02-06T16:03:35.685Z,13.75
2023-02-06T16:06:03.699Z,12.30
2023-02-06T16:08:34.498Z,11.02
2023-02-06T16:11:05.457Z,17.15
2023-02-06T16:13:34.099Z,16.10
2023-02-06T16:16:05.208Z,14.18
2023-02-06T16:18:35.482Z,14.30
2023-02-06T16:21:28.677Z,15.23
2023-02-06T16:24:16.510Z,17.85
2023-02-06T16:26:48.115Z,20.35
2023-02-06T16:29:25.282Z,14.98
2023-02-06T16:32:01.426Z,12.98
2023-02-06T16:34:36.919Z,14.85
2023-02-06T16:37:10.857Z,12.07
2023-02-06T16:39:40.215Z,11.88
2023-02-06T16:42:13.612Z,13.18
2023-02-06T16:44:45.226Z,19.85
2023-02-06T16:47:15.399Z,17.65
2023-02-06T16:49:43.656Z,16.92
2023-02-06T16:52:18.783Z,12.38
2023-02-06T16:54:47.366Z,15.57
2023-02-06T16:57:23.020Z,14.98
2023-02-06T16:59:51.272Z,11.88
2023-02-06T17:02:19.567Z,15.30
2023-02-06T17:04:48.962Z,15.45
2023-02-06T17:07:19.799Z,15.02
2023-02-06T17:09:49.171Z,15.38
2023-02-06T17:12:21.532Z,14.13
2023-02-06T17:14:50.347Z,8.98
2023-02-06T17:17:21.778Z,15.65
2023-02-06T17:19:52.319Z,18.15
2023-02-06T17:22:20.606Z,13.93
2023-02-06T17:24:49.068Z,10.48
2023-02-06T17:27:20.508Z,9.48
2023-02-06T17:29:49.324Z,15.70
2023-02-06T17:32:21.987Z,9.65
2023-02-06T17:34:54.150Z,13.25
2023-02-06T17:37:22.364Z,13.68
2023-02-06T17:39:51.858Z,20.15
2023-02-06T17:42:24.222Z,15.65
2023-02-06T17:44:52.487Z,13.52
2023-02-06T17:47:20.852Z,16.38
2023-02-06T17:49:48.937Z,14.38
2023-02-06T17:52:17.079Z,16.17
2023-02-06T17:54:45.616Z,11.88
2023-02-06T17:57:14.414Z,16.85
2023-02-06T17:59:43.927Z,15.63
2023-02-06T18:02:13.853Z,11.38
2023-02-06T18:04:43.398Z,13.77
2023-02-06T18:07:11.778Z,10.75
2023-02-06T18:09:42.087Z,14.13
2023-02-06T18:12:10.475Z,20.15
2023-02-06T18:14:39.639Z,9.88
2023-02-06T18:17:09.674Z,11.98
2023-02-06T18:19:42.188Z,15.75
2023-02-06T18:22:11.645Z,18.92
2023-02-06T18:24:40.255Z,15.70
2023-02-06T18:27:09.055Z,10.60
2023-02-06T18:29:49.390Z,17.65
2023-02-06T18:32:20.236Z,12.45
2023-02-06T18:34:48.543Z,15.13
2023-02-06T18:37:16.658Z,13.50
2023-02-06T18:39:44.998Z,12.27
2023-02-06T18:42:39.307Z,14.30
2023-02-06T18:45:07.975Z,15.98
2023-02-06T18:47:39.054Z,12.18
2023-02-06T18:50:07.930Z,15.77
2023-02-06T18:52:36.221Z,14.73
2023-02-06T18:55:04.920Z,15.25
2023-02-06T18:57:33.256Z,12.05
2023-02-06T19:00:01.336Z,14.57
2023-02-06T19:02:29.827Z,12.95
2023-02-06T19:05:00.695Z,10.93
2023-02-06T19:07:28.758Z,13.23
2023-02-06T19:09:58.320Z,14.07
2023-02-06T19:12:28.024Z,16.98
2023-02-06T19:14:56.315Z,17.00
2023-02-06T19:17:24.772Z,16.70
2023-02-06T19:19:53.061Z,11.57
2023-02-06T19:22:22.381Z,17.23
2023-02-06T19:24:53.275Z,11.17
2023-02-06T19:27:22.090Z,14.70
2023-02-06T19:29:50.938Z,16.17
2023-02-06T19:32:19.710Z,14.87
2023-02-06T19:34:47.767Z,13.17
2023-02-06T19:37:16.135Z,17.60
2023-02-06T19:39:45.664Z,15.27
2023-02-06T19:42:15.587Z,15.73
2023-02-06T19:44:44.308Z,15.40
2023-02-06T19:47:12.523Z,17.73
2023-02-06T19:49:40.703Z,25.00
2023-02-06T19:52:09.573Z,17.87
2023-02-06T19:54:37.740Z,15.93
2023-02-06T19:57:07.440Z,18.10
2023-02-06T19:59:35.688Z,15.03
2023-02-06T20:02:04.268Z,16.30
2023-02-06T20:04:34.190Z,23.27
2023-02-06T20:07:02.364Z,20.63
2023-02-06T20:09:30.824Z,13.03
2023-02-06T20:11:59.726Z,16.80
2023-02-06T20:14:29.169Z,15.33
2023-02-06T20:16:57.298Z,13.90
2023-02-06T20:19:27.873Z,13.03
2023-02-06T20:21:57.468Z,15.97
2023-02-06T20:24:26.979Z,15.13
2023-02-06T20:26:56.371Z,15.73
2023-02-06T20:29:26.698Z,17.87
2023-02-06T20:31:57.223Z,15.33
2023-02-06T20:34:25.690Z,14.37
2023-02-06T20:36:54.047Z,11.47
2023-02-06T20:39:22.337Z,9.60
2023-02-06T20:41:50.920Z,16.97
2023-02-06T20:44:19.993Z,14.43
2023-02-06T20:46:48.590Z,13.43
2023-02-06T20:49:19.782Z,15.40
2023-02-06T20:51:49.020Z,19.87
2023-02-06T20:54:17.394Z,16.63
2023-02-06T20:56:45.826Z,18.60
2023-02-06T20:59:15.144Z,15.73
2023-02-06T21:01:44.057Z,11.93
2023-02-06T21:04:13.641Z,13.87
2023-02-06T21:06:44.239Z,12.57
2023-02-06T21:09:12.761Z,18.00
2023-02-06T21:11:43.656Z,13.50
2023-02-06T21:14:12.808Z,20.53
2023-02-06T21:16:41.436Z,20.30
2023-02-06T21:19:11.351Z,20.83
2023-02-06T21:21:39.910Z,15.43
2023-02-06T21:24:10.104Z,16.10
2023-02-06T21:26:38.528Z,19.57
2023-02-06T21:29:07.775Z,20.13
2023-02-06T21:31:38.553Z,14.97
2023-02-06T21:34:09.803Z,19.37
2023-02-06T21:36:39.274Z,32.50
2023-02-06T21:39:07.742Z,18.50
2023-02-06T21:41:37.889Z,18.00
2023-02-06T21:44:06.454Z,25.87
2023-02-06T21:46:34.897Z,24.20
2023-02-06T21:49:03.260Z,27.57
2023-02-06T21:51:31.505Z,31.87
2023-02-06T21:53:59.965Z,16.70
2023-02-06T21:56:29.162Z,20.77
2023-02-06T21:58:58.848Z,20.23
2023-02-06T22:01:29.139Z,18.10
2023-02-06T22:03:58.177Z,13.97
2023-02-06T22:06:26.378Z,15.37
2023-02-06T22:08:55.928Z,17.07
2023-02-06T22:11:25.984Z,13.37
2023-02-06T22:13:54.844Z,15.87
2023-02-06T22:16:24.807Z,25.47
2023-02-06T22:18:53.113Z,19.97
2023-02-06T22:21:22.873Z,18.57
2023-02-06T22:23:52.379Z,20.50
2023-02-06T22:26:21.435Z,19.20
2023-02-06T22:28:49.909Z,20.87
2023-02-06T22:31:20.118Z,21.60
2023-02-06T22:33:49.888Z,16.77
2023-02-06T22:36:21.038Z,21.60
2023-02-06T22:38:53.446Z,25.60
2023-02-06T22:41:21.532Z,20.00
2023-02-06T22:43:51.453Z,20.67
2023-02-06T22:46:21.588Z,15.70
2023-02-06T22:48:51.579Z,31.03
2023-02-06T22:51:19.938Z,22.07
2023-02-06T22:53:48.176Z,27.60
2023-02-06T22:56:31.494Z,23.50
2023-02-06T22:59:01.480Z,20.67
2023-02-06T23:01:31.880Z,26.97
2023-02-06T23:04:02.695Z,18.13
2023-02-06T23:06:32.118Z,23.23
2023-02-06T23:09:01.077Z,23.47
2023-02-06T23:11:31.476Z,20.87
2023-02-06T23:14:01.300Z,19.40
2023-02-06T23:16:29.755Z,18.93
2023-02-06T23:18:58.083Z,15.70
2023-02-06T23:21:28.151Z,24.20
2023-02-06T23:23:56.983Z,20.10
2023-02-06T23:26:25.342Z,29.00
2023-02-06T23:28:53.523Z,22.53
2023-02-06T23:31:21.641Z,27.60
2023-02-06T23:33:49.825Z,23.70
2023-02-06T23:36:20.970Z,25.93
2023-02-06T23:38:50.757Z,25.37
2023-02-06T23:41:20.841Z,27.33
2023-02-06T23:43:51.193Z,28.00
2023-02-06T23:46:20.291Z,24.27
2023-02-06T23:48:48.915Z,23.77
2023-02-06T23:51:17.588Z,16.93
2023-02-06T23:53:45.735Z,21.33
2023-02-06T23:56:16.856Z,22.83
2023-02-06T23:58:45.171Z,25.63
